Time;durP1;ratioP1;P1;durP2;ratioP2;P2;SDS_P1;SDS_P2;PMS_P1;PMS_P2;Temp;Humidity;BMP_temperature;BMP_pressure;BME280_temperature;BME280_humidity;BME280_pressure;Samples;Min_cycle;Max_cycle;Signal;HPM_P1;HPM_P2
2021/08/26 00:06:58;;;;;;;3.93;0.67;;;16.20;99.90;;;;;;5025188;28;20745;-94
2021/08/26 00:09:28;;;;;;;0.90;0.40;;;16.20;99.90;;;;;;5028086;28;20231;-95
2021/08/26 00:11:55;;;;;;;1.53;0.80;;;16.20;99.90;;;;;;5032174;28;20297;-95
2021/08/26 00:14:24;;;;;;;0.73;0.40;;;16.20;99.90;;;;;;5040396;28;20326;-95
2021/08/26 00:17:00;;;;;;;8.90;3.73;;;16.20;99.90;;;;;;5045398;28;20281;-96
2021/08/26 00:19:27;;;;;;;1.13;0.67;;;16.20;99.90;;;;;;5031120;28;20228;-96
2021/08/26 00:21:55;;;;;;;5.10;0.93;;;16.20;99.90;;;;;;5038684;28;20219;-96
2021/08/26 00:24:24;;;;;;;1.53;1.23;;;16.20;99.90;;;;;;5040436;28;20211;-96
2021/08/26 00:26:52;;;;;;;5.07;0.50;;;16.20;99.90;;;;;;5033163;28;20219;-95
2021/08/26 00:29:38;;;;;;;4.13;0.47;;;16.20;99.90;;;;;;5041085;28;20223;-94
2021/08/26 00:32:10;;;;;;;7.77;1.00;;;16.10;99.90;;;;;;5033193;28;20241;-95
2021/08/26 00:34:39;;;;;;;2.00;0.40;;;16.10;99.90;;;;;;5029296;28;20207;-96
2021/08/26 00:37:18;;;;;;;0.60;0.60;;;16.00;99.90;;;;;;5035283;28;20266;-96
2021/08/26 00:39:45;;;;;;;3.23;1.43;;;16.00;99.90;;;;;;5028769;28;20219;-95
2021/08/26 00:42:12;;;;;;;3.30;0.97;;;16.00;99.90;;;;;;5029778;28;20305;-96
2021/08/26 00:44:38;;;;;;;5.43;0.80;;;16.10;99.90;;;;;;5031925;28;20215;-94
2021/08/26 00:47:05;;;;;;;0.80;0.80;;;16.00;99.90;;;;;;5032778;28;20186;-94
2021/08/26 00:49:31;;;;;;;0.50;0.50;;;15.90;99.90;;;;;;5029349;28;20219;-95
2021/08/26 00:51:58;;;;;;;4.53;1.07;;;16.00;99.90;;;;;;5033370;28;20206;-95
2021/08/26 00:54:25;;;;;;;1.20;0.70;;;15.90;99.90;;;;;;5025865;28;20577;-95
2021/08/26 00:56:52;;;;;;;3.87;1.87;;;15.90;99.90;;;;;;5016643;28;20683;-94
2021/08/26 00:59:18;;;;;;;4.33;2.03;;;16.00;99.90;;;;;;5009763;28;20195;-95
2021/08/26 01:01:52;;;;;;;1.17;0.70;;;16.00;99.90;;;;;;5029114;28;20195;-95
2021/08/26 01:04:29;;;;;;;6.70;1.57;;;15.90;99.90;;;;;;5047275;28;20215;-95
2021/08/26 01:07:23;;;;;;;0.90;0.77;;;15.90;99.90;;;;;;5036732;28;20218;-95
2021/08/26 01:10:13;;;;;;;3.37;0.87;;;16.00;99.90;;;;;;5035510;28;20242;-96
2021/08/26 01:12:41;;;;;;;4.70;1.17;;;16.00;99.90;;;;;;5028785;28;20208;-95
2021/08/26 01:15:10;;;;;;;5.13;1.53;;;16.10;99.90;;;;;;5011617;28;20235;-95
2021/08/26 01:17:50;;;;;;;6.03;0.60;;;16.10;99.90;;;;;;5032378;28;20226;-96
2021/08/26 01:20:17;;;;;;;2.77;0.80;;;16.10;99.90;;;;;;5031874;28;20256;-94
2021/08/26 01:22:49;;;;;;;0.90;0.57;;;16.10;99.90;;;;;;5034924;28;20647;-96
2021/08/26 01:25:18;;;;;;;0.10;0.10;;;16.10;99.90;;;;;;5031370;28;20198;-94
2021/08/26 01:28:05;;;;;;;1.13;0.83;;;16.10;99.90;;;;;;5024826;28;20278;-94
2021/08/26 01:30:36;;;;;;;3.13;0.83;;;16.00;99.90;;;;;;5040725;28;20222;-95
2021/08/26 01:33:07;;;;;;;0.67;0.30;;;15.90;99.90;;;;;;5022747;28;20214;-95
2021/08/26 01:35:33;;;;;;;9.13;1.30;;;15.90;99.90;;;;;;5037412;28;20218;-96
2021/08/26 01:37:59;;;;;;;7.37;1.10;;;15.90;99.90;;;;;;5022637;28;20246;-94
2021/08/26 01:40:57;;;;;;;1.40;0.70;;;15.90;99.90;;;;;;5033003;28;20210;-96
2021/08/26 01:43:28;;;;;;;1.47;1.13;;;15.90;99.90;;;;;;5022850;28;20224;-96
2021/08/26 01:45:57;;;;;;;1.13;0.60;;;15.90;99.90;;;;;;5027785;28;20221;-94
2021/08/26 01:48:24;;;;;;;1.23;1.13;;;15.90;99.90;;;;;;5026422;28;20233;-96
2021/08/26 01:50:51;;;;;;;0.20;0.20;;;15.90;99.90;;;;;;5037005;28;20309;-95
2021/08/26 01:53:21;;;;;;;3.23;0.30;;;16.00;99.90;;;;;;5027298;28;20605;-96
2021/08/26 01:55:49;;;;;;;0.97;0.53;;;16.00;99.90;;;;;;5028944;28;20179;-96
2021/08/26 01:58:15;;;;;;;6.53;1.20;;;16.00;99.90;;;;;;5022053;28;20230;-93
2021/08/26 02:00:45;;;;;;;4.70;1.13;;;15.70;99.90;;;;;;5015834;28;20293;-94
2021/08/26 02:03:11;;;;;;;0.53;0.50;;;15.60;99.90;;;;;;4992164;28;20223;-95
2021/08/26 02:05:37;;;;;;;1.67;0.37;;;15.30;99.90;;;;;;5015314;28;20293;-94
2021/08/26 02:08:03;;;;;;;4.63;0.90;;;15.00;99.90;;;;;;5023060;28;20195;-94
2021/08/26 02:10:30;;;;;;;0.50;0.50;;;14.80;99.90;;;;;;5027078;28;20221;-96
2021/08/26 02:12:56;;;;;;;4.13;1.77;;;14.80;99.90;;;;;;5015488;28;20694;-95
2021/08/26 02:15:22;;;;;;;0.47;0.30;;;14.80;99.90;;;;;;5025114;28;20287;-95
2021/08/26 02:17:48;;;;;;;0.37;0.37;;;14.80;99.90;;;;;;5032865;28;20301;-95
2021/08/26 02:20:14;;;;;;;5.43;0.97;;;14.90;99.90;;;;;;5023582;28;20245;-95
2021/08/26 02:22:41;;;;;;;0.97;0.70;;;14.90;99.90;;;;;;5028848;28;20190;-96
2021/08/26 02:25:08;;;;;;;6.80;1.40;;;14.90;99.90;;;;;;5036522;28;20226;-94
2021/08/26 02:27:34;;;;;;;2.53;0.53;;;15.10;99.90;;;;;;5021589;28;20222;-94
2021/08/26 02:30:00;;;;;;;0.47;0.47;;;15.00;99.90;;;;;;5024277;28;20230;-96
2021/08/26 02:32:29;;;;;;;2.53;0.40;;;15.10;99.90;;;;;;5015235;28;20222;-96
2021/08/26 02:34:59;;;;;;;0.93;0.67;;;15.20;99.90;;;;;;5026359;28;20178;-96
2021/08/26 02:37:26;;;;;;;1.83;1.07;;;15.20;99.90;;;;;;5019460;28;20234;-96
2021/08/26 02:39:52;;;;;;;4.87;0.60;;;15.30;99.90;;;;;;5023045;28;20202;-96
2021/08/26 02:42:17;;;;;;;4.03;0.80;;;15.40;99.90;;;;;;5015183;28;20222;-95
2021/08/26 02:44:43;;;;;;;1.53;0.87;;;15.40;99.90;;;;;;5031792;28;20229;-96
2021/08/26 02:47:09;;;;;;;0.60;0.57;;;15.40;99.90;;;;;;5028343;28;20214;-96
2021/08/26 02:49:37;;;;;;;3.47;1.17;;;15.40;99.90;;;;;;5024369;28;20245;-96
2021/08/26 02:52:04;;;;;;;3.60;1.40;;;15.50;99.90;;;;;;5030335;28;20223;-96
2021/08/26 02:54:31;;;;;;;7.10;1.30;;;15.50;99.90;;;;;;5018155;28;20699;-96
2021/08/26 02:56:59;;;;;;;5.80;0.97;;;15.40;99.90;;;;;;5009901;28;20219;-96
2021/08/26 02:59:25;;;;;;;4.63;0.93;;;15.40;99.90;;;;;;5027211;28;20186;-96
2021/08/26 03:01:51;;;;;;;1.10;0.53;;;15.40;99.90;;;;;;5025239;28;20190;-95
2021/08/26 03:04:16;;;;;;;5.07;1.73;;;15.40;99.90;;;;;;5015861;28;20225;-96
2021/08/26 03:06:43;;;;;;;4.07;0.97;;;15.40;99.90;;;;;;5012699;28;20215;-95
2021/08/26 03:09:09;;;;;;;3.17;1.30;;;15.40;99.90;;;;;;5014971;28;20273;-96
2021/08/26 03:11:36;;;;;;;1.23;0.93;;;15.40;99.90;;;;;;5017310;28;20214;-96
2021/08/26 03:14:02;;;;;;;1.83;1.13;;;15.40;99.90;;;;;;5015948;28;20265;-94
2021/08/26 03:16:28;;;;;;;0.87;0.80;;;15.40;99.90;;;;;;5012646;28;20705;-94
2021/08/26 03:18:54;;;;;;;10.00;1.60;;;15.40;99.90;;;;;;5018414;28;20239;-95
2021/08/26 03:21:21;;;;;;;2.63;1.63;;;15.40;99.90;;;;;;5015529;28;20714;-96
2021/08/26 03:23:47;;;;;;;9.30;1.33;;;15.40;99.90;;;;;;5013734;28;20353;-95
2021/08/26 03:26:12;;;;;;;4.40;1.33;;;15.50;99.90;;;;;;5026204;28;20183;-96
2021/08/26 03:28:40;;;;;;;1.37;0.70;;;15.50;99.90;;;;;;5029192;28;20229;-93
2021/08/26 03:31:21;;;;;;;1.13;0.60;;;15.40;99.90;;;;;;5025975;28;20293;-95
2021/08/26 03:33:47;;;;;;;5.00;1.13;;;15.10;99.90;;;;;;5030093;28;20277;-96
2021/08/26 03:36:15;;;;;;;1.87;0.93;;;15.10;99.90;;;;;;5022229;28;20247;-96
2021/08/26 03:38:48;;;;;;;0.80;0.80;;;15.10;99.90;;;;;;5025835;28;20218;-95
2021/08/26 03:41:15;;;;;;;0.43;0.43;;;15.10;99.90;;;;;;5025920;28;20181;-95
2021/08/26 03:43:40;;;;;;;0.80;0.80;;;15.10;99.90;;;;;;5027059;28;20248;-96
2021/08/26 03:46:06;;;;;;;0.90;0.90;;;15.10;99.90;;;;;;5021187;28;20434;-94
2021/08/26 03:48:32;;;;;;;4.13;1.93;;;15.20;99.90;;;;;;5010316;28;20215;-94
2021/08/26 03:51:02;;;;;;;1.03;0.90;;;15.20;99.90;;;;;;5010440;28;20222;-96
2021/08/26 03:53:28;;;;;;;8.93;0.97;;;15.20;99.90;;;;;;5012660;28;20230;-96
2021/08/26 03:55:53;;;;;;;1.73;1.53;;;15.40;99.90;;;;;;5014488;28;20188;-95
2021/08/26 03:58:19;;;;;;;3.73;1.60;;;15.50;99.90;;;;;;5021255;28;20215;-94
2021/08/26 04:00:47;;;;;;;2.07;0.97;;;15.50;99.90;;;;;;5014411;28;20871;-96
2021/08/26 04:03:13;;;;;;;4.53;1.57;;;15.50;99.90;;;;;;5018227;28;20223;-95
2021/08/26 04:05:39;;;;;;;8.33;2.20;;;15.40;99.90;;;;;;5021210;28;20225;-96
2021/08/26 04:08:05;;;;;;;3.27;1.37;;;15.50;99.90;;;;;;5024810;28;20234;-96
2021/08/26 04:10:32;;;;;;;4.63;1.30;;;15.50;99.90;;;;;;5019868;28;20268;-96
2021/08/26 04:12:58;;;;;;;5.30;1.60;;;15.50;99.90;;;;;;5028494;28;20627;-95
2021/08/26 04:15:23;;;;;;;5.70;1.60;;;15.50;99.90;;;;;;5014435;28;20253;-95
2021/08/26 04:17:52;;;;;;;5.20;1.80;;;15.60;99.90;;;;;;5025037;28;20240;-96
2021/08/26 04:20:18;;;;;;;5.57;1.47;;;15.60;99.90;;;;;;5018744;28;20191;-96
2021/08/26 04:22:44;;;;;;;3.03;2.33;;;15.60;99.90;;;;;;5029062;28;20231;-95
2021/08/26 04:25:11;;;;;;;6.97;1.47;;;15.70;99.90;;;;;;5034386;28;20226;-96
2021/08/26 04:27:37;;;;;;;1.83;1.20;;;15.80;99.90;;;;;;5038338;28;20215;-96
2021/08/26 04:30:08;;;;;;;4.70;1.63;;;15.80;99.90;;;;;;5027017;28;20222;-96
2021/08/26 04:32:51;;;;;;;4.43;2.27;;;15.80;99.90;;;;;;5029538;28;20250;-94
2021/08/26 04:35:17;;;;;;;1.23;0.83;;;15.70;99.90;;;;;;5024633;28;20232;-96
2021/08/26 04:37:51;;;;;;;8.87;1.60;;;15.60;99.90;;;;;;5032887;28;20226;-96
2021/08/26 04:40:26;;;;;;;2.47;1.63;;;15.50;99.90;;;;;;5036172;28;20235;-96
2021/08/26 04:43:00;;;;;;;2.83;1.03;;;15.50;99.90;;;;;;5030992;28;20223;-93
2021/08/26 04:45:27;;;;;;;5.43;1.50;;;15.50;99.90;;;;;;5029941;28;20276;-96
2021/08/26 04:47:53;;;;;;;8.50;2.10;;;15.60;99.90;;;;;;5027870;28;20180;-96
2021/08/26 04:50:19;;;;;;;6.87;1.10;;;15.50;99.90;;;;;;5028225;28;20209;-96
2021/08/26 04:52:45;;;;;;;8.57;2.03;;;15.50;99.90;;;;;;5030202;28;20282;-96
2021/08/26 04:55:13;;;;;;;2.90;2.23;;;15.60;99.90;;;;;;5033679;28;20218;-96
2021/08/26 04:57:38;;;;;;;3.17;1.37;;;15.60;99.90;;;;;;5029113;28;20212;-96
2021/08/26 05:00:05;;;;;;;4.73;1.43;;;15.60;99.90;;;;;;5028379;28;20198;-96
2021/08/26 05:02:31;;;;;;;7.57;1.73;;;15.60;99.90;;;;;;5039247;28;20186;-95
2021/08/26 05:05:00;;;;;;;5.23;1.70;;;15.60;99.90;;;;;;5024895;28;20242;-94
2021/08/26 05:07:27;;;;;;;6.03;2.13;;;15.60;99.90;;;;;;5028872;28;20231;-96
2021/08/26 05:09:54;;;;;;;8.23;1.37;;;15.60;99.90;;;;;;5020408;28;20307;-94
2021/08/26 05:12:23;;;;;;;5.13;1.13;;;15.60;99.90;;;;;;5026501;28;20250;-96
2021/08/26 05:14:49;;;;;;;6.53;1.80;;;15.50;99.90;;;;;;5024554;28;20318;-95
2021/08/26 05:17:16;;;;;;;5.37;2.23;;;15.50;99.90;;;;;;5019671;28;20187;-95
2021/08/26 05:19:44;;;;;;;8.57;2.73;;;15.50;99.90;;;;;;5027906;28;20223;-95
2021/08/26 05:22:10;;;;;;;4.07;1.27;;;15.50;99.90;;;;;;5029514;28;20215;-96
2021/08/26 05:24:39;;;;;;;6.67;2.17;;;15.50;99.90;;;;;;5025514;28;20219;-96
2021/08/26 05:27:04;;;;;;;7.00;2.07;;;15.60;99.90;;;;;;5027785;28;20197;-95
2021/08/26 05:29:30;;;;;;;5.37;1.70;;;15.60;99.90;;;;;;5028844;28;20199;-96
2021/08/26 05:31:56;;;;;;;6.03;1.10;;;15.60;99.90;;;;;;5025230;28;20211;-95
2021/08/26 05:34:22;;;;;;;4.43;1.37;;;15.70;99.90;;;;;;5024670;28;20207;-96
2021/08/26 05:36:48;;;;;;;8.87;1.70;;;15.70;99.90;;;;;;5016483;28;20243;-96
2021/08/26 05:39:13;;;;;;;6.47;2.27;;;15.70;99.90;;;;;;5015215;28;20220;-95
2021/08/26 05:41:44;;;;;;;11.47;2.37;;;15.70;99.90;;;;;;5026745;28;20183;-96
2021/08/26 05:44:19;;;;;;;6.57;1.87;;;15.80;99.90;;;;;;5025806;28;20204;-96
2021/08/26 05:46:45;;;;;;;15.43;2.27;;;15.80;99.90;;;;;;5014439;28;20222;-96
2021/08/26 05:49:14;;;;;;;9.60;2.20;;;15.80;99.90;;;;;;5024936;28;20281;-96
2021/08/26 05:51:40;;;;;;;2.77;2.07;;;15.80;99.90;;;;;;5017218;28;20211;-95
2021/08/26 05:54:06;;;;;;;9.67;2.97;;;15.80;99.90;;;;;;5015145;28;20680;-95
2021/08/26 05:56:32;;;;;;;17.20;1.83;;;15.80;99.90;;;;;;5012078;28;20292;-95
2021/08/26 05:58:58;;;;;;;8.47;2.03;;;15.90;99.90;;;;;;5008985;28;20372;-92
2021/08/26 06:01:32;;;;;;;9.00;1.70;;;15.90;99.90;;;;;;5016548;28;20226;-94
2021/08/26 06:04:01;;;;;;;39.47;3.30;;;16.00;99.90;;;;;;5013563;28;20300;-96
2021/08/26 06:06:27;;;;;;;5.40;1.73;;;16.10;99.90;;;;;;5010888;28;20626;-92
2021/08/26 06:08:53;;;;;;;7.47;1.07;;;16.10;99.90;;;;;;4994246;28;20187;-96
2021/08/26 06:11:19;;;;;;;12.63;2.67;;;16.20;99.90;;;;;;5011243;28;20211;-93
2021/08/26 06:13:44;;;;;;;5.57;1.90;;;16.20;99.90;;;;;;5011631;28;20242;-94
2021/08/26 06:16:11;;;;;;;7.70;2.03;;;16.30;99.90;;;;;;5012068;28;20265;-96
2021/08/26 06:18:37;;;;;;;5.83;1.40;;;16.30;99.90;;;;;;5010683;28;20226;-93
2021/08/26 06:21:02;;;;;;;1.60;1.17;;;16.30;99.90;;;;;;5011345;28;20187;-95
2021/08/26 06:23:28;;;;;;;2.00;1.43;;;16.20;99.90;;;;;;5010423;28;20194;-93
2021/08/26 06:25:57;;;;;;;10.67;3.37;;;16.20;99.90;;;;;;5019446;28;20309;-93
2021/08/26 06:28:23;;;;;;;8.17;1.57;;;16.20;99.90;;;;;;5020153;28;20233;-92
2021/08/26 06:30:49;;;;;;;5.07;1.47;;;16.20;99.90;;;;;;5007239;28;20306;-91
2021/08/26 06:33:15;;;;;;;6.77;2.17;;;16.30;99.90;;;;;;5018029;28;20211;-89
2021/08/26 06:35:40;;;;;;;9.27;2.30;;;16.40;99.90;;;;;;5010508;28;20651;-90
2021/08/26 06:38:06;;;;;;;2.90;1.73;;;16.40;99.90;;;;;;5014874;28;21427;-90
2021/08/26 06:40:32;;;;;;;4.43;1.83;;;16.50;99.90;;;;;;5012121;28;20265;-89
2021/08/26 06:42:58;;;;;;;13.17;2.10;;;16.60;99.90;;;;;;5011834;28;20687;-88
2021/08/26 06:45:23;;;;;;;4.93;1.70;;;16.70;99.90;;;;;;5008319;28;20317;-88
2021/08/26 06:47:49;;;;;;;4.93;1.97;;;16.80;99.90;;;;;;5008510;28;20221;-92
2021/08/26 06:50:15;;;;;;;12.07;2.20;;;16.80;99.90;;;;;;5019900;28;20285;-92
2021/08/26 06:52:40;;;;;;;7.27;1.83;;;16.80;99.90;;;;;;5013565;28;20230;-90
2021/08/26 06:55:07;;;;;;;7.90;2.10;;;16.80;99.90;;;;;;5012882;28;20626;-91
2021/08/26 06:57:32;;;;;;;3.83;2.53;;;16.80;99.90;;;;;;5019889;28;20243;-92
2021/08/26 06:59:58;;;;;;;16.00;2.40;;;16.80;99.90;;;;;;5014086;28;20187;-91
2021/08/26 07:02:24;;;;;;;6.90;1.90;;;16.90;99.90;;;;;;5009496;28;20612;-89
2021/08/26 07:04:50;;;;;;;5.37;2.27;;;17.00;99.90;;;;;;5007361;28;20329;-93
2021/08/26 07:07:15;;;;;;;14.20;2.43;;;17.20;99.90;;;;;;5008006;28;20242;-90
2021/08/26 07:09:41;;;;;;;6.83;1.83;;;17.40;99.90;;;;;;5006439;28;20245;-89
2021/08/26 07:12:07;;;;;;;9.43;2.90;;;17.50;99.90;;;;;;5006545;28;20268;-90
2021/08/26 07:14:33;;;;;;;5.47;2.10;;;17.50;99.90;;;;;;5007197;28;20223;-90
2021/08/26 07:16:58;;;;;;;7.13;2.77;;;17.40;99.90;;;;;;5013265;28;20215;-89
2021/08/26 07:19:24;;;;;;;11.93;3.03;;;17.50;99.90;;;;;;5006945;28;20250;-90
2021/08/26 07:21:50;;;;;;;13.07;2.30;;;17.40;99.90;;;;;;5005955;28;20218;-89
2021/08/26 07:24:16;;;;;;;8.00;2.47;;;17.30;99.90;;;;;;5006863;28;20211;-89
2021/08/26 07:26:42;;;;;;;15.60;2.33;;;17.10;99.90;;;;;;5007859;28;20271;-90
2021/08/26 07:29:09;;;;;;;12.83;1.97;;;17.00;99.90;;;;;;5007524;28;20239;-89
2021/08/26 07:31:35;;;;;;;8.57;2.00;;;17.10;99.90;;;;;;5014658;28;20221;-89
2021/08/26 07:34:01;;;;;;;4.27;2.20;;;17.10;99.90;;;;;;5005586;28;20214;-89
2021/08/26 07:36:27;;;;;;;2.97;1.77;;;17.10;99.90;;;;;;5006768;28;20222;-93
2021/08/26 07:38:52;;;;;;;8.50;2.63;;;17.20;99.90;;;;;;5007432;28;20187;-91
2021/08/26 07:41:18;;;;;;;14.87;2.73;;;17.40;99.90;;;;;;5008763;28;20240;-94
2021/08/26 07:43:46;;;;;;;7.37;2.53;;;17.60;99.90;;;;;;5009653;28;20953;-89
2021/08/26 07:46:12;;;;;;;7.80;2.77;;;18.00;99.90;;;;;;5010526;28;20729;-93
2021/08/26 07:48:39;;;;;;;16.20;3.73;;;18.60;99.90;;;;;;5011266;28;20219;-90
2021/08/26 07:51:05;;;;;;;8.53;2.60;;;18.90;99.90;;;;;;5014852;28;20214;-92
2021/08/26 07:53:32;;;;;;;7.63;2.53;;;18.80;99.90;;;;;;5006933;28;20278;-91
2021/08/26 07:56:01;;;;;;;7.80;3.27;;;18.80;99.90;;;;;;5010083;28;20296;-90
2021/08/26 07:58:30;;;;;;;8.03;3.17;;;18.90;99.90;;;;;;5011148;28;20236;-90
2021/08/26 08:00:59;;;;;;;9.37;1.83;;;18.90;99.90;;;;;;5011901;28;20695;-91
2021/08/26 08:03:25;;;;;;;6.63;1.93;;;18.40;99.90;;;;;;5011163;28;20218;-91
2021/08/26 08:05:51;;;;;;;5.67;1.57;;;18.30;99.90;;;;;;5009391;28;20179;-92
2021/08/26 08:08:17;;;;;;;8.73;2.30;;;18.20;99.90;;;;;;5011297;28;20192;-91
2021/08/26 08:10:43;;;;;;;8.93;2.20;;;18.20;99.90;;;;;;5010688;28;20648;-89
2021/08/26 08:13:09;;;;;;;12.97;2.23;;;18.20;99.90;;;;;;5010203;28;20302;-90
2021/08/26 08:15:34;;;;;;;14.00;2.50;;;18.10;99.90;;;;;;5009723;28;20309;-89
2021/08/26 08:18:00;;;;;;;7.67;2.07;;;18.40;99.90;;;;;;5011406;28;20215;-89
2021/08/26 08:20:26;;;;;;;8.83;2.43;;;18.60;99.90;;;;;;5014764;28;20210;-89
2021/08/26 08:22:52;;;;;;;13.67;2.40;;;19.10;99.90;;;;;;5011758;28;20211;-89
2021/08/26 08:25:17;;;;;;;11.20;2.87;;;19.70;99.90;;;;;;5010362;28;20214;-89
2021/08/26 08:27:43;;;;;;;1.50;1.10;;;19.60;99.90;;;;;;5011406;28;20214;-89
2021/08/26 08:30:09;;;;;;;3.17;1.60;;;19.50;99.90;;;;;;5010773;28;20699;-90
2021/08/26 08:32:35;;;;;;;7.37;2.63;;;19.40;99.90;;;;;;5011166;28;20282;-90
2021/08/26 08:35:01;;;;;;;7.43;2.13;;;19.00;99.90;;;;;;5011122;28;20302;-90
2021/08/26 08:37:27;;;;;;;7.30;2.63;;;19.10;99.90;;;;;;5016721;28;20233;-91
2021/08/26 08:39:53;;;;;;;15.23;2.77;;;19.00;99.90;;;;;;5015105;28;20202;-91
2021/08/26 08:42:23;;;;;;;14.20;2.67;;;19.00;99.90;;;;;;5012817;28;20218;-90
2021/08/26 08:44:50;;;;;;;13.80;1.80;;;19.10;99.90;;;;;;5013126;28;20184;-92
2021/08/26 08:47:17;;;;;;;6.30;1.43;;;18.90;99.90;;;;;;5021418;28;20269;-93
2021/08/26 08:49:45;;;;;;;11.60;3.77;;;18.80;99.90;;;;;;5014590;28;20241;-93
2021/08/26 08:52:11;;;;;;;6.03;2.27;;;19.30;99.90;;;;;;5015783;28;20210;-94
2021/08/26 08:54:37;;;;;;;7.57;2.37;;;19.20;99.90;;;;;;5010803;28;20372;-91
2021/08/26 08:57:04;;;;;;;9.27;2.87;;;19.30;99.90;;;;;;5016010;28;20191;-92
2021/08/26 08:59:33;;;;;;;7.53;3.33;;;19.70;99.90;;;;;;5015610;28;20198;-92
2021/08/26 09:01:58;;;;;;;9.57;2.30;;;20.50;99.90;;;;;;5016952;28;20294;-90
2021/08/26 09:04:24;;;;;;;4.90;2.67;;;20.70;99.90;;;;;;5017285;28;20654;-91
2021/08/26 09:06:51;;;;;;;17.00;3.37;;;20.20;99.90;;;;;;5013889;28;20226;-91
2021/08/26 09:09:18;;;;;;;5.40;2.47;;;19.80;99.90;;;;;;5018874;28;20232;-89
2021/08/26 09:11:56;;;;;;;8.73;3.03;;;19.30;99.90;;;;;;5016474;28;20186;-89
2021/08/26 09:14:27;;;;;;;8.63;2.33;;;19.10;99.90;;;;;;5022734;28;20314;-90
2021/08/26 09:16:54;;;;;;;12.67;2.57;;;18.90;99.90;;;;;;5015895;28;20584;-91
2021/08/26 09:19:30;;;;;;;5.37;1.90;;;18.90;99.90;;;;;;5025316;28;20628;-89
2021/08/26 09:21:58;;;;;;;5.97;2.27;;;18.60;99.90;;;;;;5017802;28;20211;-89
2021/08/26 09:24:40;;;;;;;5.37;2.60;;;18.70;99.90;;;;;;5026199;28;20621;-90
2021/08/26 09:27:06;;;;;;;12.00;3.07;;;18.70;99.90;;;;;;5019761;28;20238;-90
2021/08/26 09:29:32;;;;;;;7.27;2.23;;;18.80;99.90;;;;;;5018697;28;20203;-92
2021/08/26 09:31:59;;;;;;;4.83;2.20;;;18.90;99.90;;;;;;5014622;28;20242;-94
2021/08/26 09:34:24;;;;;;;12.07;2.57;;;18.90;99.90;;;;;;4988592;28;20219;-93
2021/08/26 09:36:55;;;;;;;5.37;2.90;;;19.00;99.90;;;;;;5018760;28;20779;-91
2021/08/26 09:39:24;;;;;;;4.93;1.20;;;19.00;99.90;;;;;;5032641;28;20218;-91
2021/08/26 09:41:53;;;;;;;7.00;2.37;;;19.30;99.90;;;;;;5023282;28;20175;-90
2021/08/26 09:44:23;;;;;;;5.80;2.07;;;19.20;99.90;;;;;;5017523;28;20198;-90
2021/08/26 09:46:52;;;;;;;4.27;1.90;;;19.30;99.90;;;;;;5029121;28;20211;-91
2021/08/26 09:49:23;;;;;;;2.27;1.67;;;19.50;99.90;;;;;;5020108;28;20680;-91
2021/08/26 09:52:07;;;;;;;4.10;1.40;;;20.80;99.90;;;;;;5019394;28;20917;-93
2021/08/26 09:54:59;;;;;;;5.47;2.13;;;21.80;99.90;;;;;;5028311;28;20233;-91
2021/08/26 09:57:44;;;;;;;8.47;2.03;;;22.50;99.90;;;;;;5018759;28;20227;-90
2021/08/26 10:00:10;;;;;;;6.33;2.07;;;23.30;99.90;;;;;;5020367;28;20238;-90
2021/08/26 10:02:48;;;;;;;6.00;2.60;;;23.40;99.90;;;;;;5013261;28;20191;-91
2021/08/26 10:05:14;;;;;;;12.55;2.53;;;23.70;99.90;;;;;;5013330;28;20211;-89
2021/08/26 10:07:42;;;;;;;4.60;1.70;;;22.80;99.90;;;;;;5013058;28;20206;-91
2021/08/26 10:10:08;;;;;;;5.80;1.80;;;23.80;99.90;;;;;;5017509;28;20215;-89
2021/08/26 10:12:34;;;;;;;9.18;1.75;;;24.40;99.90;;;;;;5012751;28;20222;-91
2021/08/26 10:15:00;;;;;;;6.68;2.08;;;24.20;99.90;;;;;;5011432;28;20223;-90
2021/08/26 10:17:26;;;;;;;6.57;2.25;;;24.20;99.90;;;;;;5011559;28;20191;-91
2021/08/26 10:19:52;;;;;;;7.93;1.85;;;24.40;99.90;;;;;;5005030;28;20222;-91
2021/08/26 10:22:18;;;;;;;3.65;1.50;;;24.50;99.90;;;;;;5011500;28;20218;-92
2021/08/26 10:24:45;;;;;;;7.53;2.53;;;24.90;99.90;;;;;;5015875;28;20280;-92
2021/08/26 10:27:17;;;;;;;5.22;1.40;;;24.30;99.90;;;;;;5003970;28;20348;-90
2021/08/26 10:29:49;;;;;;;5.22;1.95;;;24.20;99.90;;;;;;5018374;28;20210;-92
2021/08/26 10:32:25;;;;;;;3.75;1.45;;;24.30;99.90;;;;;;5019819;28;20742;-88
2021/08/26 10:35:10;;;;;;;6.90;2.38;;;23.60;99.90;;;;;;4992984;28;20709;-92
2021/08/26 10:37:56;;;;;;;5.18;1.58;;;23.00;99.90;;;;;;5016449;28;20226;-88
2021/08/26 10:40:25;;;;;;;3.33;2.00;;;23.00;99.90;;;;;;5000300;28;20318;-88
2021/08/26 10:42:51;;;;;;;8.85;2.45;;;22.80;99.90;;;;;;5024660;28;20230;-92
2021/08/26 10:45:26;;;;;;;3.05;1.60;;;21.30;99.90;;;;;;5009843;28;20667;-93
2021/08/26 10:48:02;;;;;;;3.53;1.60;;;21.00;99.90;;;;;;5020414;28;20193;-92
2021/08/26 10:50:36;;;;;;;2.65;1.45;;;20.80;99.90;;;;;;5017880;28;20752;-93
2021/08/26 10:53:04;;;;;;;7.05;2.30;;;20.80;99.90;;;;;;5016194;28;20210;-92
2021/08/26 10:55:40;;;;;;;5.00;1.98;;;21.10;99.90;;;;;;5016116;28;20219;-93
2021/08/26 10:58:24;;;;;;;5.47;1.77;;;20.60;99.90;;;;;;5026980;28;20226;-92
2021/08/26 11:01:00;;;;;;;5.00;1.73;;;21.00;99.90;;;;;;5017752;28;21046;-94
2021/08/26 11:03:42;;;;;;;6.57;1.70;;;20.70;99.90;;;;;;5017623;28;20218;-92
2021/08/26 11:06:32;;;;;;;6.37;1.77;;;21.20;99.90;;;;;;5021107;28;20223;-94
2021/08/26 11:09:32;;;;;;;5.63;2.80;;;22.10;99.90;;;;;;5022864;28;20658;-93
2021/08/26 11:12:03;;;;;;;9.30;2.42;;;22.90;99.90;;;;;;5023076;28;20735;-94
2021/08/26 11:14:31;;;;;;;7.93;1.90;;;22.50;99.90;;;;;;5028743;28;20238;-95
2021/08/26 11:17:02;;;;;;;12.95;3.15;;;22.00;99.90;;;;;;5026203;28;20222;-94
2021/08/26 11:19:31;;;;;;;5.20;1.95;;;22.40;99.90;;;;;;5005082;28;20230;-93
2021/08/26 11:22:16;;;;;;;7.88;2.45;;;22.50;99.90;;;;;;5020481;28;20222;-94
2021/08/26 11:24:51;;;;;;;8.48;1.60;;;21.90;99.90;;;;;;5019374;28;20576;-95
2021/08/26 11:27:23;;;;;;;5.97;1.90;;;22.00;99.90;;;;;;5025592;28;20218;-94
2021/08/26 11:29:50;;;;;;;12.18;2.83;;;21.20;99.90;;;;;;5024174;28;20229;-94
2021/08/26 11:32:20;;;;;;;5.93;2.88;;;21.20;99.90;;;;;;5016257;28;20183;-94
2021/08/26 11:34:55;;;;;;;6.37;2.37;;;21.60;99.90;;;;;;5016348;28;20219;-95
2021/08/26 11:37:27;;;;;;;5.45;1.95;;;21.70;99.90;;;;;;5016879;28;20210;-94
2021/08/26 11:40:00;;;;;;;5.13;2.20;;;21.10;99.90;;;;;;5037350;28;20253;-93
2021/08/26 11:42:30;;;;;;;6.35;2.20;;;21.60;99.90;;;;;;5027768;28;20233;-94
2021/08/26 11:45:46;;;;;;;4.80;2.10;;;21.80;99.90;;;;;;5028304;28;20527;-93
2021/08/26 11:48:12;;;;;;;10.70;2.13;;;22.10;99.90;;;;;;5017333;28;20276;-94
2021/08/26 11:50:40;;;;;;;6.93;1.95;;;22.30;99.90;;;;;;5023864;28;20206;-96
2021/08/26 11:53:11;;;;;;;7.65;1.48;;;21.90;99.90;;;;;;5037996;28;20202;-94
2021/08/26 11:55:55;;;;;;;5.80;1.97;;;21.90;99.90;;;;;;5034702;28;20229;-95
2021/08/26 11:58:21;;;;;;;3.67;1.10;;;21.80;99.90;;;;;;5031937;28;20210;-95
2021/08/26 12:00:52;;;;;;;3.40;0.88;;;21.90;99.90;;;;;;5026983;28;20226;-92
2021/08/26 12:03:19;;;;;;;3.10;1.30;;;22.20;99.90;;;;;;5022767;28;20214;-94
2021/08/26 12:05:45;;;;;;;5.63;0.70;;;22.40;99.90;;;;;;5013378;28;20195;-94
2021/08/26 12:08:11;;;;;;;2.25;0.77;;;22.10;99.90;;;;;;5023180;28;20630;-93
2021/08/26 12:10:44;;;;;;;2.33;0.93;;;22.20;99.90;;;;;;5013595;28;20219;-93
2021/08/26 12:13:28;;;;;;;1.08;0.70;;;22.30;99.90;;;;;;5014811;28;20215;-92
2021/08/26 12:15:54;;;;;;;4.20;0.70;;;21.40;99.90;;;;;;5008961;28;20273;-92
2021/08/26 12:18:25;;;;;;;2.23;0.50;;;21.20;99.90;;;;;;5022410;28;20207;-90
2021/08/26 12:20:54;;;;;;;2.43;0.70;;;21.50;99.90;;;;;;5025888;28;20178;-91
2021/08/26 12:23:30;;;;;;;3.15;0.70;;;21.50;99.90;;;;;;5024238;28;20179;-91
2021/08/26 12:26:10;;;;;;;2.67;0.60;;;21.40;99.90;;;;;;5024435;28;20218;-94
2021/08/26 12:28:38;;;;;;;2.40;0.60;;;21.50;99.90;;;;;;5020173;28;20222;-94
2021/08/26 12:31:18;;;;;;;1.80;0.70;;;21.40;99.90;;;;;;5019846;28;20246;-93
2021/08/26 12:33:55;;;;;;;0.37;0.37;;;21.40;99.90;;;;;;5010313;28;20325;-91
2021/08/26 12:36:21;;;;;;;4.73;0.80;;;20.90;99.90;;;;;;5018920;28;20258;-93
2021/08/26 12:38:47;;;;;;;1.37;1.20;;;20.80;99.90;;;;;;5004860;28;20261;-91
2021/08/26 12:41:31;;;;;;;1.60;0.80;;;21.20;99.90;;;;;;5001955;28;20215;-92
2021/08/26 12:44:00;;;;;;;3.43;0.60;;;20.70;99.90;;;;;;5022872;28;20652;-92
2021/08/26 12:46:48;;;;;;;1.90;0.50;;;20.80;99.90;;;;;;5015198;28;20218;-94
2021/08/26 12:49:16;;;;;;;1.70;0.43;;;21.20;99.90;;;;;;5010703;28;20351;-96
2021/08/26 12:51:56;;;;;;;2.23;0.73;;;21.70;99.90;;;;;;5006021;28;20231;-93
2021/08/26 12:54:22;;;;;;;0.57;0.50;;;21.90;99.90;;;;;;5036916;28;20183;-93
2021/08/26 12:56:51;;;;;;;2.70;0.50;;;21.40;99.90;;;;;;5011630;28;20222;-92
2021/08/26 12:59:21;;;;;;;2.33;0.80;;;21.60;99.90;;;;;;5021038;28;20227;-94
2021/08/26 13:02:02;;;;;;;2.57;0.80;;;21.60;99.90;;;;;;5014585;28;20229;-92